sensor_id;sensor_type;location;lat;lon;timestamp;pressure;altitude;pressure_sealevel;temperature;humidity
13732;BME280;6937;56.096;12.664;2023-04-06T00:01:08;101551.66;;;3.58;100.00
13732;BME280;6937;56.096;12.664;2023-04-06T00:03:34;101550.09;;;3.52;100.00
13732;BME280;6937;56.096;12.664;2023-04-06T00:05:59;101552.66;;;3.54;100.00
13732;BME280;6937;56.096;12.664;2023-04-06T00:08:26;101538.44;;;3.58;100.00
13732;BME280;6937;56.096;12.664;2023-04-06T00:10:51;101534.75;;;3.63;100.00
13732;BME280;6937;56.096;12.664;2023-04-06T00:13:16;101534.59;;;3.68;100.00
13732;BME280;6937;56.096;12.664;2023-04-06T00:15:42;101537.94;;;3.74;100.00
13732;BME280;6937;56.096;12.664;2023-04-06T00:18:07;101530.75;;;3.78;100.00
13732;BME280;6937;56.096;12.664;2023-04-06T00:20:32;101536.84;;;3.80;100.00
13732;BME280;6937;56.096;12.664;2023-04-06T00:22:58;101541.34;;;3.78;100.00
13732;BME280;6937;56.096;12.664;2023-04-06T00:25:23;101535.94;;;3.81;100.00
13732;BME280;6937;56.096;12.664;2023-04-06T00:27:48;101533.19;;;3.84;100.00
13732;BME280;6937;56.096;12.664;2023-04-06T00:30:14;101533.97;;;3.87;100.00
13732;BME280;6937;56.096;12.664;2023-04-06T00:32:39;101544.59;;;3.86;100.00
13732;BME280;6937;56.096;12.664;2023-04-06T00:35:05;101532.19;;;3.88;100.00
13732;BME280;6937;56.096;12.664;2023-04-06T00:37:31;101538.22;;;3.92;100.00
13732;BME280;6937;56.096;12.664;2023-04-06T00:39:57;101538.13;;;3.95;100.00
13732;BME280;6937;56.096;12.664;2023-04-06T00:42:23;101546.03;;;3.96;100.00
13732;BME280;6937;56.096;12.664;2023-04-06T00:44:55;101541.63;;;3.95;100.00
13732;BME280;6937;56.096;12.664;2023-04-06T00:47:22;101546.13;;;3.93;100.00
13732;BME280;6937;56.096;12.664;2023-04-06T00:49:48;101547.06;;;3.90;100.00
13732;BME280;6937;56.096;12.664;2023-04-06T00:52:14;101543.53;;;3.92;100.00
13732;BME280;6937;56.096;12.664;2023-04-06T00:54:40;101546.19;;;3.90;100.00
13732;BME280;6937;56.096;12.664;2023-04-06T00:57:05;101546.13;;;3.93;100.00
13732;BME280;6937;56.096;12.664;2023-04-06T00:59:31;101547.94;;;3.91;100.00
13732;BME280;6937;56.096;12.664;2023-04-06T01:01:56;101548.78;;;3.93;100.00
13732;BME280;6937;56.096;12.664;2023-04-06T01:04:21;101544.25;;;3.97;100.00
13732;BME280;6937;56.096;12.664;2023-04-06T01:06:50;101547.59;;;4.02;100.00
13732;BME280;6937;56.096;12.664;2023-04-06T01:09:16;101543.38;;;3.96;100.00
13732;BME280;6937;56.096;12.664;2023-04-06T01:11:42;101548.56;;;3.99;100.00
13732;BME280;6937;56.096;12.664;2023-04-06T01:14:07;101545.00;;;4.00;100.00
13732;BME280;6937;56.096;12.664;2023-04-06T01:16:33;101540.63;;;3.99;100.00
13732;BME280;6937;56.096;12.664;2023-04-06T01:18:59;101545.91;;;3.99;100.00
13732;BME280;6937;56.096;12.664;2023-04-06T01:21:24;101536.22;;;4.00;100.00
13732;BME280;6937;56.096;12.664;2023-04-06T01:23:50;101537.88;;;4.02;100.00
13732;BME280;6937;56.096;12.664;2023-04-06T01:26:15;101543.25;;;4.01;100.00
13732;BME280;6937;56.096;12.664;2023-04-06T01:28:41;101544.34;;;3.94;100.00
13732;BME280;6937;56.096;12.664;2023-04-06T01:31:08;101539.13;;;3.90;100.00
13732;BME280;6937;56.096;12.664;2023-04-06T01:33:34;101537.47;;;3.88;100.00
13732;BME280;6937;56.096;12.664;2023-04-06T01:35:59;101539.13;;;3.90;100.00
13732;BME280;6937;56.096;12.664;2023-04-06T01:38:25;101535.69;;;3.88;100.00
13732;BME280;6937;56.096;12.664;2023-04-06T01:40:51;101545.50;;;3.85;100.00
13732;BME280;6937;56.096;12.664;2023-04-06T01:43:17;101541.97;;;3.86;100.00
13732;BME280;6937;56.096;12.664;2023-04-06T01:45:42;101527.94;;;3.82;100.00
13732;BME280;6937;56.096;12.664;2023-04-06T01:48:07;101538.63;;;3.79;100.00
13732;BME280;6937;56.096;12.664;2023-04-06T01:50:33;101536.03;;;3.78;100.00
13732;BME280;6937;56.096;12.664;2023-04-06T01:52:58;101535.97;;;3.79;100.00
13732;BME280;6937;56.096;12.664;2023-04-06T01:55:23;101534.31;;;3.77;100.00
13732;BME280;6937;56.096;12.664;2023-04-06T01:57:49;101533.34;;;3.79;100.00
13732;BME280;6937;56.096;12.664;2023-04-06T02:00:15;101530.69;;;3.79;100.00
13732;BME280;6937;56.096;12.664;2023-04-06T02:02:41;101529.75;;;3.82;100.00
13732;BME280;6937;56.096;12.664;2023-04-06T02:05:07;101524.47;;;3.82;100.00
13732;BME280;6937;56.096;12.664;2023-04-06T02:07:32;101523.53;;;3.83;100.00
13732;BME280;6937;56.096;12.664;2023-04-06T02:09:57;101530.59;;;3.82;100.00
13732;BME280;6937;56.096;12.664;2023-04-06T02:12:23;101528.28;;;3.72;100.00
13732;BME280;6937;56.096;12.664;2023-04-06T02:14:49;101531.16;;;3.66;100.00
13732;BME280;6937;56.096;12.664;2023-04-06T02:17:14;101532.16;;;3.62;100.00
13732;BME280;6937;56.096;12.664;2023-04-06T02:19:40;101530.38;;;3.62;100.00
13732;BME280;6937;56.096;12.664;2023-04-06T02:22:05;101526.84;;;3.63;100.00
13732;BME280;6937;56.096;12.664;2023-04-06T02:24:31;101524.13;;;3.65;100.00
13732;BME280;6937;56.096;12.664;2023-04-06T02:26:56;101525.09;;;3.62;100.00
13732;BME280;6937;56.096;12.664;2023-04-06T02:29:21;101526.88;;;3.62;100.00
13732;BME280;6937;56.096;12.664;2023-04-06T02:31:47;101531.34;;;3.60;100.00
13732;BME280;6937;56.096;12.664;2023-04-06T02:34:12;101525.34;;;3.55;100.00
13732;BME280;6937;56.096;12.664;2023-04-06T02:36:46;101522.78;;;3.52;100.00
13732;BME280;6937;56.096;12.664;2023-04-06T02:39:12;101521.06;;;3.51;100.00
13732;BME280;6937;56.096;12.664;2023-04-06T02:41:38;101528.19;;;3.49;100.00
13732;BME280;6937;56.096;12.664;2023-04-06T02:44:05;101515.91;;;3.46;100.00
13732;BME280;6937;56.096;12.664;2023-04-06T02:46:30;101519.56;;;3.42;100.00
13732;BME280;6937;56.096;12.664;2023-04-06T02:48:56;101520.53;;;3.39;100.00
13732;BME280;6937;56.096;12.664;2023-04-06T02:51:21;101525.84;;;3.38;100.00
13732;BME280;6937;56.096;12.664;2023-04-06T02:53:46;101516.09;;;3.40;100.00
13732;BME280;6937;56.096;12.664;2023-04-06T02:56:12;101516.03;;;3.41;100.00
13732;BME280;6937;56.096;12.664;2023-04-06T02:58:37;101509.03;;;3.40;100.00
13732;BME280;6937;56.096;12.664;2023-04-06T03:01:03;101513.31;;;3.45;100.00
13732;BME280;6937;56.096;12.664;2023-04-06T03:03:28;101514.13;;;3.47;100.00
13732;BME280;6937;56.096;12.664;2023-04-06T03:05:54;101520.28;;;3.47;100.00
13732;BME280;6937;56.096;12.664;2023-04-06T03:08:21;101507.97;;;3.46;100.00
13732;BME280;6937;56.096;12.664;2023-04-06T03:10:46;101508.84;;;3.47;100.00
13732;BME280;6937;56.096;12.664;2023-04-06T03:13:12;101509.72;;;3.47;100.00
13732;BME280;6937;56.096;12.664;2023-04-06T03:15:37;101510.72;;;3.43;100.00
13732;BME280;6937;56.096;12.664;2023-04-06T03:18:02;101507.97;;;3.46;100.00
13732;BME280;6937;56.096;12.664;2023-04-06T03:20:28;101502.59;;;3.49;100.00
13732;BME280;6937;56.096;12.664;2023-04-06T03:22:53;101498.94;;;3.53;100.00
13732;BME280;6937;56.096;12.664;2023-04-06T03:25:18;101493.53;;;3.56;100.00
13732;BME280;6937;56.096;12.664;2023-04-06T03:27:44;101494.34;;;3.60;100.00
13732;BME280;6937;56.096;12.664;2023-04-06T03:30:09;101494.16;;;3.64;100.00
13732;BME280;6937;56.096;12.664;2023-04-06T03:32:35;101487.84;;;3.70;100.00
13732;BME280;6937;56.096;12.664;2023-04-06T03:35:00;101493.06;;;3.71;100.00
13732;BME280;6937;56.096;12.664;2023-04-06T03:37:25;101500.94;;;3.73;100.00
13732;BME280;6937;56.096;12.664;2023-04-06T03:39:51;101490.38;;;3.73;100.00
13732;BME280;6937;56.096;12.664;2023-04-06T03:42:17;101493.84;;;3.75;100.00
13732;BME280;6937;56.096;12.664;2023-04-06T03:44:42;101490.16;;;3.79;100.00
13732;BME280;6937;56.096;12.664;2023-04-06T03:47:07;101498.94;;;3.81;100.00
13732;BME280;6937;56.096;12.664;2023-04-06T03:49:33;101498.81;;;3.84;100.00
13732;BME280;6937;56.096;12.664;2023-04-06T03:51:58;101500.66;;;3.82;100.00
13732;BME280;6937;56.096;12.664;2023-04-06T03:54:23;101491.00;;;3.81;100.00
13732;BME280;6937;56.096;12.664;2023-04-06T03:56:49;101492.63;;;3.85;100.00
13732;BME280;6937;56.096;12.664;2023-04-06T03:59:14;101497.09;;;3.83;100.00
13732;BME280;6937;56.096;12.664;2023-04-06T04:01:40;101493.56;;;3.82;100.00
13732;BME280;6937;56.096;12.664;2023-04-06T04:04:05;101499.69;;;3.84;100.00
13732;BME280;6937;56.096;12.664;2023-04-06T04:06:30;101494.53;;;3.80;100.00
13732;BME280;6937;56.096;12.664;2023-04-06T04:08:56;101496.38;;;3.78;100.00
13732;BME280;6937;56.096;12.664;2023-04-06T04:11:21;101492.00;;;3.77;100.00
13732;BME280;6937;56.096;12.664;2023-04-06T04:13:47;101492.00;;;3.77;100.00
13732;BME280;6937;56.096;12.664;2023-04-06T04:16:12;101492.88;;;3.77;100.00
13732;BME280;6937;56.096;12.664;2023-04-06T04:18:37;101491.03;;;3.79;100.00
13732;BME280;6937;56.096;12.664;2023-04-06T04:21:03;101497.25;;;3.78;100.00
13732;BME280;6937;56.096;12.664;2023-04-06T04:23:28;101496.31;;;3.79;100.00
13732;BME280;6937;56.096;12.664;2023-04-06T04:25:53;101490.13;;;3.80;100.00
13732;BME280;6937;56.096;12.664;2023-04-06T04:28:19;101489.22;;;3.81;100.00
13732;BME280;6937;56.096;12.664;2023-04-06T04:30:45;101484.69;;;3.85;100.00
13732;BME280;6937;56.096;12.664;2023-04-06T04:33:10;101481.06;;;3.87;100.00
13732;BME280;6937;56.096;12.664;2023-04-06T04:35:36;101469.34;;;3.96;100.00
13732;BME280;6937;56.096;12.664;2023-04-06T04:38:01;101459.28;;;4.06;100.00
13732;BME280;6937;56.096;12.664;2023-04-06T04:40:26;101442.25;;;4.14;100.00
13732;BME280;6937;56.096;12.664;2023-04-06T04:42:52;101434.91;;;4.22;100.00
13732;BME280;6937;56.096;12.664;2023-04-06T04:45:17;101416.28;;;4.25;100.00
13732;BME280;6937;56.096;12.664;2023-04-06T04:47:42;101406.41;;;4.30;100.00
13732;BME280;6937;56.096;12.664;2023-04-06T04:50:08;101392.03;;;4.37;100.00
13732;BME280;6937;56.096;12.664;2023-04-06T04:52:33;101386.56;;;4.42;100.00
13732;BME280;6937;56.096;12.664;2023-04-06T04:54:59;101376.78;;;4.44;100.00
13732;BME280;6937;56.096;12.664;2023-04-06T04:57:24;101368.72;;;4.47;100.00
13732;BME280;6937;56.096;12.664;2023-04-06T04:59:50;101353.66;;;4.49;100.00
13732;BME280;6937;56.096;12.664;2023-04-06T05:02:16;101329.63;;;4.54;100.00
13732;BME280;6937;56.096;12.664;2023-04-06T05:04:41;101310.03;;;4.59;100.00
13732;BME280;6937;56.096;12.664;2023-04-06T05:07:08;101301.94;;;4.62;100.00
13732;BME280;6937;56.096;12.664;2023-04-06T05:09:33;101300.13;;;4.64;100.00
13732;BME280;6937;56.096;12.664;2023-04-06T05:11:59;101282.38;;;4.66;100.00
13732;BME280;6937;56.096;12.664;2023-04-06T05:14:28;101282.34;;;4.68;100.00
13732;BME280;6937;56.096;12.664;2023-04-06T05:16:54;101277.94;;;4.67;100.00
13732;BME280;6937;56.096;12.664;2023-04-06T05:19:20;101271.75;;;4.68;100.00
13732;BME280;6937;56.096;12.664;2023-04-06T05:21:45;101260.16;;;4.70;100.00
13732;BME280;6937;56.096;12.664;2023-04-06T05:24:10;101258.28;;;4.72;100.00
13732;BME280;6937;56.096;12.664;2023-04-06T05:26:36;101247.69;;;4.72;100.00
13732;BME280;6937;56.096;12.664;2023-04-06T05:29:01;101249.31;;;4.76;100.00
13732;BME280;6937;56.096;12.664;2023-04-06T05:31:27;101245.75;;;4.77;100.00
13732;BME280;6937;56.096;12.664;2023-04-06T05:33:52;101238.63;;;4.79;100.00
13732;BME280;6937;56.096;12.664;2023-04-06T05:36:18;101242.09;;;4.80;100.00
13732;BME280;6937;56.096;12.664;2023-04-06T05:38:43;101236.88;;;4.78;100.00
13732;BME280;6937;56.096;12.664;2023-04-06T05:41:09;101245.69;;;4.79;100.00
13732;BME280;6937;56.096;12.664;2023-04-06T05:43:34;101255.28;;;4.81;100.00
13732;BME280;6937;56.096;12.664;2023-04-06T05:45:59;101251.59;;;4.85;100.00
13732;BME280;6937;56.096;12.664;2023-04-06T05:48:25;101255.78;;;4.91;100.00
13732;BME280;6937;56.096;12.664;2023-04-06T05:50:51;101253.88;;;4.95;100.00
13732;BME280;6937;56.096;12.664;2023-04-06T05:53:16;101258.19;;;4.97;100.00
13732;BME280;6937;56.096;12.664;2023-04-06T05:55:42;101254.72;;;4.95;100.00
13732;BME280;6937;56.096;12.664;2023-04-06T05:58:07;101258.31;;;4.94;100.00
13732;BME280;6937;56.096;12.664;2023-04-06T06:00:32;101260.81;;;4.97;100.00
13732;BME280;6937;56.096;12.664;2023-04-06T06:02:58;101269.50;;;5.01;100.00
13732;BME280;6937;56.096;12.664;2023-04-06T06:05:23;101287.13;;;5.02;100.00
13732;BME280;6937;56.096;12.664;2023-04-06T06:07:49;101300.16;;;5.06;100.00
13732;BME280;6937;56.096;12.664;2023-04-06T06:10:15;101290.34;;;5.10;100.00
13732;BME280;6937;56.096;12.664;2023-04-06T06:12:40;101303.19;;;5.19;100.00
13732;BME280;6937;56.096;12.664;2023-04-06T06:15:06;101306.44;;;5.25;100.00
13732;BME280;6937;56.096;12.664;2023-04-06T06:17:31;101321.28;;;5.29;100.00
13732;BME280;6937;56.096;12.664;2023-04-06T06:19:57;101334.28;;;5.35;100.00
13732;BME280;6937;56.096;12.664;2023-04-06T06:22:22;101346.59;;;5.36;100.00
13732;BME280;6937;56.096;12.664;2023-04-06T06:24:47;101356.28;;;5.38;100.00
13732;BME280;6937;56.096;12.664;2023-04-06T06:27:14;101378.34;;;5.38;100.00
13732;BME280;6937;56.096;12.664;2023-04-06T06:29:40;101395.13;;;5.39;100.00
13732;BME280;6937;56.096;12.664;2023-04-06T06:32:05;101407.25;;;5.44;100.00
13732;BME280;6937;56.096;12.664;2023-04-06T06:34:30;101412.50;;;5.46;100.00
13732;BME280;6937;56.096;12.664;2023-04-06T06:36:56;101424.69;;;5.50;100.00
13732;BME280;6937;56.096;12.664;2023-04-06T06:39:21;101433.75;;;5.44;100.00
13732;BME280;6937;56.096;12.664;2023-04-06T06:41:47;101447.00;;;5.44;100.00
13732;BME280;6937;56.096;12.664;2023-04-06T06:44:12;101450.66;;;5.42;100.00
13732;BME280;6937;56.096;12.664;2023-04-06T06:46:37;101479.25;;;5.33;100.00
13732;BME280;6937;56.096;12.664;2023-04-06T06:49:03;101485.75;;;5.25;100.00
13732;BME280;6937;56.096;12.664;2023-04-06T06:51:28;101502.66;;;5.22;100.00
13732;BME280;6937;56.096;12.664;2023-04-06T06:53:53;101504.31;;;5.25;100.00
13732;BME280;6937;56.096;12.664;2023-04-06T06:56:19;101519.06;;;5.32;100.00
13732;BME280;6937;56.096;12.664;2023-04-06T06:58:45;101531.97;;;5.41;100.00
13732;BME280;6937;56.096;12.664;2023-04-06T07:01:10;101542.69;;;5.38;100.00
13732;BME280;6937;56.096;12.664;2023-04-06T07:03:35;101562.03;;;5.40;100.00
13732;BME280;6937;56.096;12.664;2023-04-06T07:06:01;101573.56;;;5.39;100.00
13732;BME280;6937;56.096;12.664;2023-04-06T07:08:26;101583.97;;;5.44;100.00
13732;BME280;6937;56.096;12.664;2023-04-06T07:10:52;101589.13;;;5.48;100.00
13732;BME280;6937;56.096;12.664;2023-04-06T07:13:19;101595.75;;;5.60;100.00
13732;BME280;6937;56.096;12.664;2023-04-06T07:15:50;101609.53;;;5.69;100.00
13732;BME280;6937;56.096;12.664;2023-04-06T07:18:17;101630.38;;;5.78;100.00
13732;BME280;6937;56.096;12.664;2023-04-06T07:20:42;101653.16;;;5.84;100.00
13732;BME280;6937;56.096;12.664;2023-04-06T07:23:07;101674.03;;;5.93;100.00
13732;BME280;6937;56.096;12.664;2023-04-06T07:25:33;101689.66;;;6.01;100.00
13732;BME280;6937;56.096;12.664;2023-04-06T07:27:58;101686.50;;;6.14;100.00
13732;BME280;6937;56.096;12.664;2023-04-06T07:30:24;101706.38;;;6.26;100.00
13732;BME280;6937;56.096;12.664;2023-04-06T07:32:51;101707.03;;;6.31;100.00
13732;BME280;6937;56.096;12.664;2023-04-06T07:35:17;101725.16;;;6.43;100.00
13732;BME280;6937;56.096;12.664;2023-04-06T07:37:42;101741.69;;;6.50;100.00
13732;BME280;6937;56.096;12.664;2023-04-06T07:40:08;101752.19;;;6.53;100.00
13732;BME280;6937;56.096;12.664;2023-04-06T07:42:33;101765.91;;;6.64;100.00
13732;BME280;6937;56.096;12.664;2023-04-06T07:44:59;101768.25;;;6.71;100.00
13732;BME280;6937;56.096;12.664;2023-04-06T07:47:24;101788.28;;;6.80;100.00
13732;BME280;6937;56.096;12.664;2023-04-06T07:49:50;101794.84;;;6.93;100.00
13732;BME280;6937;56.096;12.664;2023-04-06T07:52:15;101810.66;;;6.96;100.00
13732;BME280;6937;56.096;12.664;2023-04-06T07:54:41;101812.63;;;6.91;100.00
13732;BME280;6937;56.096;12.664;2023-04-06T07:57:07;101827.34;;;6.78;100.00
13732;BME280;6937;56.096;12.664;2023-04-06T07:59:32;101841.59;;;6.75;100.00
13732;BME280;6937;56.096;12.664;2023-04-06T08:01:57;101854.84;;;6.54;100.00
13732;BME280;6937;56.096;12.664;2023-04-06T08:04:23;101860.69;;;6.40;100.00
13732;BME280;6937;56.096;12.664;2023-04-06T08:06:48;101872.97;;;6.43;100.00
13732;BME280;6937;56.096;12.664;2023-04-06T08:09:13;101877.72;;;6.58;100.00
13732;BME280;6937;56.096;12.664;2023-04-06T08:11:39;101883.81;;;6.60;100.00
13732;BME280;6937;56.096;12.664;2023-04-06T08:14:04;101889.34;;;6.55;100.00
13732;BME280;6937;56.096;12.664;2023-04-06T08:16:30;101884.06;;;6.54;100.00
13732;BME280;6937;56.096;12.664;2023-04-06T08:18:55;101889.03;;;6.40;100.00
13732;BME280;6937;56.096;12.664;2023-04-06T08:21:21;101898.91;;;6.36;100.00
13732;BME280;6937;56.096;12.664;2023-04-06T08:23:47;101901.69;;;6.33;100.00
13732;BME280;6937;56.096;12.664;2023-04-06T08:26:12;101901.41;;;6.41;100.00
13732;BME280;6937;56.096;12.664;2023-04-06T08:28:38;101905.69;;;6.45;100.00
13732;BME280;6937;56.096;12.664;2023-04-06T08:31:06;101901.41;;;6.41;100.00
13732;BME280;6937;56.096;12.664;2023-04-06T08:33:32;101908.03;;;6.52;100.00
13732;BME280;6937;56.096;12.664;2023-04-06T08:36:07;101905.84;;;6.63;100.00
13732;BME280;6937;56.096;12.664;2023-04-06T08:38:32;101922.63;;;6.64;100.00
13732;BME280;6937;56.096;12.664;2023-04-06T08:40:58;101922.59;;;6.65;100.00
13732;BME280;6937;56.096;12.664;2023-04-06T08:43:24;101921.13;;;6.80;100.00
13732;BME280;6937;56.096;12.664;2023-04-06T08:45:52;101928.81;;;6.88;100.00
13732;BME280;6937;56.096;12.664;2023-04-06T08:48:18;101933.34;;;6.86;100.00
13732;BME280;6937;56.096;12.664;2023-04-06T08:50:43;101935.41;;;6.77;100.00
13732;BME280;6937;56.096;12.664;2023-04-06T08:53:11;101930.78;;;6.82;100.00
13732;BME280;6937;56.096;12.664;2023-04-06T08:55:37;101941.19;;;6.89;100.00
13732;BME280;6937;56.096;12.664;2023-04-06T08:58:04;101940.06;;;6.94;100.00
13732;BME280;6937;56.096;12.664;2023-04-06T09:00:31;101949.91;;;6.92;100.00
13732;BME280;6937;56.096;12.664;2023-04-06T09:02:57;101950.91;;;6.90;100.00
13732;BME280;6937;56.096;12.664;2023-04-06T09:05:25;101945.50;;;6.91;100.00
13732;BME280;6937;56.096;12.664;2023-04-06T09:07:51;101954.38;;;6.90;100.00
13732;BME280;6937;56.096;12.664;2023-04-06T09:10:16;101954.75;;;7.04;100.00
13732;BME280;6937;56.096;12.664;2023-04-06T09:12:42;101948.16;;;7.14;100.00
13732;BME280;6937;56.096;12.664;2023-04-06T09:15:20;101953.91;;;7.25;100.00
13732;BME280;6937;56.096;12.664;2023-04-06T09:17:46;101961.28;;;7.41;100.00
13732;BME280;6937;56.096;12.664;2023-04-06T09:20:12;101957.25;;;7.31;100.00
13732;BME280;6937;56.096;12.664;2023-04-06T09:22:39;101959.19;;;7.27;100.00
13732;BME280;6937;56.096;12.664;2023-04-06T09:25:05;101955.09;;;7.40;100.00
13732;BME280;6937;56.096;12.664;2023-04-06T09:27:36;101960.97;;;7.48;100.00
13732;BME280;6937;56.096;12.664;2023-04-06T09:30:04;101961.97;;;7.46;100.00
13732;BME280;6937;56.096;12.664;2023-04-06T09:32:31;101968.06;;;7.48;100.00
13732;BME280;6937;56.096;12.664;2023-04-06T09:35:07;101957.28;;;7.72;100.00
13732;BME280;6937;56.096;12.664;2023-04-06T09:37:32;101964.06;;;7.59;100.00
13732;BME280;6937;56.096;12.664;2023-04-06T09:40:06;101961.00;;;7.47;100.00
13732;BME280;6937;56.096;12.664;2023-04-06T09:42:32;101976.19;;;7.45;100.00
13732;BME280;6937;56.096;12.664;2023-04-06T09:44:58;101975.56;;;7.38;100.00
13732;BME280;6937;56.096;12.664;2023-04-06T09:47:24;101973.22;;;7.31;100.00
13732;BME280;6937;56.096;12.664;2023-04-06T09:49:55;101973.31;;;7.27;100.00
13732;BME280;6937;56.096;12.664;2023-04-06T09:52:22;101981.66;;;7.18;100.00
13732;BME280;6937;56.096;12.664;2023-04-06T09:54:50;101983.41;;;7.19;100.00
13732;BME280;6937;56.096;12.664;2023-04-06T09:57:27;101982.69;;;7.38;100.00
13732;BME280;6937;56.096;12.664;2023-04-06T10:00:07;101988.78;;;7.40;100.00
13732;BME280;6937;56.096;12.664;2023-04-06T10:05:19;101988.59;;;7.66;100.00
13732;BME280;6937;56.096;12.664;2023-04-06T10:07:46;101994.50;;;7.74;100.00
13732;BME280;6937;56.096;12.664;2023-04-06T10:10:14;101991.44;;;7.61;100.00
13732;BME280;6937;56.096;12.664;2023-04-06T10:12:41;101997.41;;;7.68;100.00
13732;BME280;6937;56.096;12.664;2023-04-06T10:15:07;102001.25;;;7.61;100.00
13732;BME280;6937;56.096;12.664;2023-04-06T10:17:33;102003.84;;;7.62;100.00
13732;BME280;6937;56.096;12.664;2023-04-06T10:20:27;102002.09;;;7.83;100.00
13732;BME280;6937;56.096;12.664;2023-04-06T10:25:55;102017.88;;;8.09;100.00
13732;BME280;6937;56.096;12.664;2023-04-06T10:28:20;102036.88;;;8.00;100.00
13732;BME280;6937;56.096;12.664;2023-04-06T10:30:46;102040.41;;;8.01;100.00
13732;BME280;6937;56.096;12.664;2023-04-06T10:33:19;102028.28;;;7.94;100.00
13732;BME280;6937;56.096;12.664;2023-04-06T10:35:46;102043.34;;;8.15;100.00
13732;BME280;6937;56.096;12.664;2023-04-06T10:38:11;102067.69;;;8.27;100.00
13732;BME280;6937;56.096;12.664;2023-04-06T10:40:40;102058.97;;;8.24;100.00
13732;BME280;6937;56.096;12.664;2023-04-06T10:43:19;102065.38;;;8.40;100.00
13732;BME280;6937;56.096;12.664;2023-04-06T10:45:54;102069.00;;;8.59;100.00
13732;BME280;6937;56.096;12.664;2023-04-06T10:48:20;102077.63;;;8.66;100.00
13732;BME280;6937;56.096;12.664;2023-04-06T10:50:55;102075.72;;;8.48;100.00
13732;BME280;6937;56.096;12.664;2023-04-06T10:53:26;102093.16;;;8.35;100.00
13732;BME280;6937;56.096;12.664;2023-04-06T10:55:53;102083.38;;;8.35;100.00
13732;BME280;6937;56.096;12.664;2023-04-06T10:58:19;102094.53;;;8.65;100.00
13732;BME280;6937;56.096;12.664;2023-04-06T11:00:48;102081.34;;;9.21;100.00
13732;BME280;6937;56.096;12.664;2023-04-06T11:03:14;102090.59;;;9.70;100.00
13732;BME280;6937;56.096;12.664;2023-04-06T11:05:49;102085.84;;;9.58;100.00
13732;BME280;6937;56.096;12.664;2023-04-06T11:08:29;102086.63;;;9.60;100.00
13732;BME280;6937;56.096;12.664;2023-04-06T11:11:09;102110.28;;;9.67;100.00
13732;BME280;6937;56.096;12.664;2023-04-06T11:16:06;102100.03;;;9.40;100.00
13732;BME280;6937;56.096;12.664;2023-04-06T11:18:32;102102.50;;;9.44;100.00
13732;BME280;6937;56.096;12.664;2023-04-06T11:20:57;102106.97;;;9.05;100.00
13732;BME280;6937;56.096;12.664;2023-04-06T11:23:25;102111.28;;;9.28;100.00
13732;BME280;6937;56.096;12.664;2023-04-06T11:25:52;102111.25;;;9.66;100.00
13732;BME280;6937;56.096;12.664;2023-04-06T11:28:18;102117.38;;;9.68;100.00
13732;BME280;6937;56.096;12.664;2023-04-06T11:30:43;102122.03;;;9.45;100.00
13732;BME280;6937;56.096;12.664;2023-04-06T11:33:09;102114.88;;;9.27;100.00
13732;BME280;6937;56.096;12.664;2023-04-06T11:35:34;102124.63;;;9.28;100.00
13732;BME280;6937;56.096;12.664;2023-04-06T11:38:02;102119.63;;;9.20;100.00
13732;BME280;6937;56.096;12.664;2023-04-06T11:40:28;102122.31;;;9.39;100.00
13732;BME280;6937;56.096;12.664;2023-04-06T11:42:55;102126.59;;;9.61;100.00
13732;BME280;6937;56.096;12.664;2023-04-06T11:45:21;102124.34;;;9.90;100.00
13732;BME280;6937;56.096;12.664;2023-04-06T11:47:59;102131.13;;;10.51;100.00
13732;BME280;6937;56.096;12.664;2023-04-06T11:50:25;102130.41;;;10.65;100.00
13732;BME280;6937;56.096;12.664;2023-04-06T11:53:01;102123.91;;;10.71;100.00
13732;BME280;6937;56.096;12.664;2023-04-06T11:55:26;102133.69;;;10.72;100.00
13732;BME280;6937;56.096;12.664;2023-04-06T11:57:52;102136.75;;;10.64;100.00
13732;BME280;6937;56.096;12.664;2023-04-06T12:00:18;102142.38;;;10.41;100.00
13732;BME280;6937;56.096;12.664;2023-04-06T12:02:47;102134.94;;;10.29;100.00
13732;BME280;6937;56.096;12.664;2023-04-06T12:05:13;102147.22;;;10.33;100.00
13732;BME280;6937;56.096;12.664;2023-04-06T12:07:39;102131.88;;;10.19;100.00
13732;BME280;6937;56.096;12.664;2023-04-06T12:10:04;102133.31;;;10.26;100.00
13732;BME280;6937;56.096;12.664;2023-04-06T12:12:30;102145.19;;;10.38;100.00
13732;BME280;6937;56.096;12.664;2023-04-06T12:14:56;102133.09;;;10.65;100.00
13732;BME280;6937;56.096;12.664;2023-04-06T12:17:22;102138.13;;;10.54;100.00
13732;BME280;6937;56.096;12.664;2023-04-06T12:19:48;102136.22;;;10.39;100.00
13732;BME280;6937;56.096;12.664;2023-04-06T12:22:13;102135.44;;;10.37;100.00
13732;BME280;6937;56.096;12.664;2023-04-06T12:24:39;102132.50;;;10.05;100.00
13732;BME280;6937;56.096;12.664;2023-04-06T12:27:04;102128.59;;;9.94;100.00
13732;BME280;6937;56.096;12.664;2023-04-06T12:29:30;102130.88;;;9.84;100.00
13732;BME280;6937;56.096;12.664;2023-04-06T12:31:55;102130.13;;;9.81;100.00
13732;BME280;6937;56.096;12.664;2023-04-06T12:34:21;102125.56;;;10.01;100.00
13732;BME280;6937;56.096;12.664;2023-04-06T12:36:46;102129.22;;;10.36;100.00
13732;BME280;6937;56.096;12.664;2023-04-06T12:39:11;102129.31;;;10.35;100.00
13732;BME280;6937;56.096;12.664;2023-04-06T12:41:37;102127.81;;;10.10;100.00
13732;BME280;6937;56.096;12.664;2023-04-06T12:44:05;102126.00;;;10.11;100.00
13732;BME280;6937;56.096;12.664;2023-04-06T12:46:31;102118.91;;;10.29;100.00
13732;BME280;6937;56.096;12.664;2023-04-06T12:48:56;102120.81;;;10.44;100.00
13732;BME280;6937;56.096;12.664;2023-04-06T12:51:23;102130.91;;;10.56;100.00
13732;BME280;6937;56.096;12.664;2023-04-06T12:53:48;102129.09;;;10.56;100.00